TimeEST,TemperatureF,Dew PointF,Humidity,Sea Level PressureIn,VisibilityMPH,Wind Direction,Wind SpeedMPH,Gust SpeedMPH,PrecipitationIn,Events,Conditions,WindDirDegrees,DateUTC
12:00 AM,57.9,39.9,51,-9999,-9999.0,WSW,2.3,-,N/A,,Unknown,250,2012-11-12 05:00:00
1:00 AM,59,40,38,,,SW,3.5,,,,,220,2012-11-12 06:00:00
1:00 AM,58.8,40.3,50,-9999,-9999.0,SW,3.5,-,N/A,,Unknown,220,2012-11-12 06:00:00
2:00 AM,60.3,39.6,46,-9999,-9999.0,SW,3.5,-,N/A,,Unknown,220,2012-11-12 07:00:00
3:00 AM,60.6,39.0,45,-9999,-9999.0,SW,2.3,-,N/A,,Unknown,230,2012-11-12 08:00:00
4:00 AM,60.1,40.1,48,-9999,-9999.0,SW,3.5,-,N/A,,Unknown,220,2012-11-12 09:00:00
5:00 AM,59.9,41.0,50,-9999,-9999.0,SSW,5.8,-,N/A,,Unknown,210,2012-11-12 10:00:00
6:00 AM,61.7,42.3,49,-9999,-9999.0,SW,6.9,-,N/A,,Unknown,220,2012-11-12 11:00:00
7:00 AM,60,44,45,,,SSW,5.8,,,,,210,2012-11-12 12:00:00
7:00 AM,60.3,44.4,56,-9999,-9999.0,SSW,5.8,-,N/A,,Unknown,210,2012-11-12 12:00:00
8:00 AM,61.7,45.1,55,-9999,-9999.0,SSW,6.9,-,N/A,,Unknown,210,2012-11-12 13:00:00
9:00 AM,63.5,47.3,56,-9999,-9999.0,SSW,8.1,-,N/A,,Unknown,210,2012-11-12 14:00:00
10:00 AM,66.6,48.4,52,-9999,-9999.0,SSW,10.4,19.6,N/A,,Unknown,200,2012-11-12 15:00:00
11:00 AM,69.1,49.1,49,-9999,-9999.0,SSW,12.7,24.2,N/A,,Unknown,210,2012-11-12 16:00:00
12:00 PM,68.4,49.1,50,-9999,-9999.0,SSW,13.8,24.2,N/A,,Unknown,210,2012-11-12 17:00:00
1:00 PM,68,49,41,,,SSW,10.4,,,,,210,2012-11-12 18:00:00
1:00 PM,67.6,49.5,52,-9999,-9999.0,SSW,10.4,19.6,N/A,,Unknown,210,2012-11-12 18:00:00
2:00 PM,61.2,53.1,75,-9999,-9999.0,SW,9.2,18.4,N/A,,Unknown,230,2012-11-12 19:00:00
3:00 PM,55.6,52.3,89,-9999,-9999.0,West,10.4,18.4,0.05,,Unknown,260,2012-11-12 20:00:00
4:00 PM,53.1,51.1,93,-9999,-9999.0,West,6.9,-,0.04,,Unknown,260,2012-11-12 21:00:00
5:00 PM,50.4,47.8,91,-9999,-9999.0,West,8.1,-,0.07,,Unknown,260,2012-11-12 22:00:00
6:00 PM,46.8,43.7,89,-9999,-9999.0,WSW,8.1,-,0.02,,Unknown,250,2012-11-12 23:00:00
7:00 PM,46,43,84,,,WSW,9.2,,,,,240,2012-11-13 00:00:00
7:00 PM,45.5,42.8,90,-9999,-9999.0,WSW,9.2,-,N/A,,Unknown,240,2012-11-13 00:00:00
8:00 PM,43.2,38.3,83,-9999,-9999.0,WSW,8.1,17.3,0.02,,Unknown,240,2012-11-13 01:00:00
10:00 PM,41.0,37.0,86,-9999,-9999.0,West,5.8,-,0.01,,Unknown,260,2012-11-13 03:00:00
11:00 PM,38.7,30.4,72,-9999,-9999.0,West,8.1,-,N/A,,Unknown,260,2012-11-13 04:00:00